Time;durP1;ratioP1;P1;durP2;ratioP2;P2;SDS_P1;SDS_P2;PMS_P1;PMS_P2;Temp;Humidity;BMP_temperature;BMP_pressure;BME280_temperature;BME280_humidity;BME280_pressure;Samples;Min_cycle;Max_cycle;Signal;HPM_P1;HPM_P2
2021/01/04 00:01:00;;;;;;;11.45;3.13;;;;;;;13.47;42.27;102529.72;5092836;28;20028;-73
2021/01/04 00:03:56;;;;;;;15.93;3.47;;;;;;;13.69;40.97;102527.28;5092787;28;20101;-73
2021/01/04 00:06:52;;;;;;;9.95;3.20;;;;;;;13.41;41.22;102525.38;5092813;28;20020;-73
2021/01/04 00:09:34;;;;;;;14.40;3.05;;;;;;;13.75;41.18;102528.88;5092790;28;20108;-73
2021/01/04 00:12:28;;;;;;;9.10;3.60;;;;;;;13.00;42.65;102531.19;5092662;28;20028;-73
2021/01/04 00:15:09;;;;;;;6.22;2.50;;;;;;;13.37;42.16;102532.53;5090404;28;20418;-74
2021/01/04 00:18:08;;;;;;;7.18;3.08;;;;;;;13.30;42.28;102539.19;5092676;28;20059;-73
2021/01/04 00:21:00;;;;;;;20.02;3.85;;;;;;;13.20;42.08;102535.69;5092615;28;20028;-73
2021/01/04 00:23:38;;;;;;;9.43;3.30;;;;;;;13.14;42.04;102531.31;5092656;28;20615;-73
2021/01/04 00:26:13;;;;;;;7.32;3.35;;;;;;;13.09;42.17;102534.13;5092506;28;20031;-74
2021/01/04 00:28:39;;;;;;;8.57;3.08;;;;;;;13.41;41.42;102530.88;5074609;28;20360;-73
2021/01/04 00:31:23;;;;;;;14.20;3.97;;;;;;;13.46;41.15;102528.09;5092456;28;20051;-73
2021/01/04 00:34:16;;;;;;;18.27;4.25;;;;;;;13.35;41.74;102534.75;5092553;28;20024;-73
2021/01/04 00:37:20;;;;;;;7.88;2.63;;;;;;;13.39;41.94;102536.66;5046308;28;20123;-73
2021/01/04 00:40:00;;;;;;;11.90;3.00;;;;;;;13.69;40.63;102526.47;5092233;28;20043;-73
2021/01/04 00:42:38;;;;;;;8.52;3.00;;;;;;;13.42;41.17;102535.25;5074326;28;20034;-73
2021/01/04 00:45:18;;;;;;;6.70;2.50;;;;;;;13.47;41.12;102535.22;5092363;28;20379;-73
2021/01/04 00:48:08;;;;;;;9.73;2.53;;;;;;;13.16;41.81;102542.84;5074285;28;20126;-73
2021/01/04 00:50:42;;;;;;;14.90;3.33;;;;;;;13.00;42.12;102542.16;5092229;28;20544;-73
2021/01/04 00:53:18;;;;;;;8.15;3.00;;;;;;;13.18;41.75;102543.38;5092333;28;20028;-73
2021/01/04 00:56:02;;;;;;;12.00;3.07;;;;;;;13.57;40.59;102544.16;5092534;28;20024;-74
2021/01/04 00:58:46;;;;;;;6.90;2.22;;;;;;;13.42;40.92;102543.47;5092339;28;20028;-74
2021/01/04 01:01:18;;;;;;;7.40;2.47;;;;;;;13.60;40.21;102534.50;5092253;28;20054;-74
2021/01/04 01:03:58;;;;;;;9.27;2.47;;;;;;;13.43;40.06;102534.13;5092204;28;20020;-73
2021/01/04 01:06:32;;;;;;;8.23;2.53;;;;;;;13.60;39.72;102535.34;5094796;28;20024;-73
2021/01/04 01:09:00;;;;;;;9.60;2.95;;;;;;;13.59;40.38;102538.38;5096075;28;20015;-74
2021/01/04 01:12:00;;;;;;;8.57;3.70;;;;;;;13.39;41.67;102538.59;5077779;28;20034;-73
2021/01/04 01:14:40;;;;;;;6.45;2.95;;;;;;;13.37;41.91;102543.50;5096056;28;20112;-74
2021/01/04 01:17:44;;;;;;;8.88;3.20;;;;;;;13.38;41.31;102546.00;5095903;28;20074;-75
2021/01/04 01:20:14;;;;;;;9.38;3.30;;;;;;;13.32;41.72;102544.41;5096168;28;20416;-73
2021/01/04 01:22:41;;;;;;;11.88;3.85;;;;;;;13.64;40.66;102537.50;5095826;28;20028;-74
2021/01/04 01:25:21;;;;;;;8.90;2.60;;;;;;;13.53;40.99;102542.28;5095835;28;20062;-74
2021/01/04 01:28:15;;;;;;;10.18;3.55;;;;;;;13.65;41.29;102548.19;5095819;28;20374;-73
2021/01/04 01:30:59;;;;;;;10.38;3.75;;;;;;;13.55;41.80;102543.63;5077434;28;20097;-73
2021/01/04 01:34:14;;;;;;;11.40;3.65;;;;;;;13.75;41.03;102544.53;5095723;28;20031;-73
2021/01/04 01:36:54;;;;;;;12.95;3.65;;;;;;;13.38;41.12;102539.69;5077335;28;20107;-74
2021/01/04 01:39:55;;;;;;;6.38;3.00;;;;;;;13.52;40.49;102541.44;5095099;28;20135;-73
2021/01/04 01:42:44;;;;;;;10.77;3.17;;;;;;;13.51;40.88;102547.25;5077363;28;20028;-73
2021/01/04 01:45:20;;;;;;;8.40;2.30;;;;;;;13.41;40.69;102544.59;5048118;28;20089;-73
2021/01/04 01:48:02;;;;;;;5.20;2.47;;;;;;;13.91;39.78;102539.72;5095367;28;20028;-73
2021/01/04 01:50:42;;;;;;;18.52;3.90;;;;;;;13.93;40.53;102546.53;5095209;28;20059;-75
2021/01/04 01:53:32;;;;;;;9.18;3.60;;;;;;;13.85;39.86;102548.00;5095115;28;20031;-74
2021/01/04 01:56:13;;;;;;;12.07;2.30;;;;;;;14.04;38.46;102550.81;5095216;28;20020;-74
2021/01/04 01:58:38;;;;;;;9.52;2.53;;;;;;;13.94;38.67;102555.59;5095163;28;20024;-73
2021/01/04 02:01:13;;;;;;;6.38;2.97;;;;;;;13.94;39.40;102556.44;5095130;28;20482;-74
2021/01/04 02:03:48;;;;;;;12.07;3.85;;;;;;;13.86;39.93;102554.31;5076918;28;20020;-74
2021/01/04 02:06:23;;;;;;;12.10;2.70;;;;;;;13.84;39.36;102554.63;5095042;28;20424;-73
2021/01/04 02:09:03;;;;;;;12.27;3.42;;;;;;;13.89;39.23;102554.53;5095012;28;20035;-74
2021/01/04 02:11:47;;;;;;;12.55;2.65;;;;;;;13.78;39.39;102553.03;5094830;28;20035;-74
2021/01/04 02:14:49;;;;;;;14.15;3.17;;;;;;;13.72;41.19;102554.19;5076756;28;20028;-74
2021/01/04 02:17:46;;;;;;;18.60;3.78;;;;;;;13.38;42.21;102553.41;5076410;28;20046;-74
2021/01/04 02:20:29;;;;;;;9.80;3.08;;;;;;;13.19;42.31;102562.31;5094497;28;20032;-73
2021/01/04 02:23:19;;;;;;;12.18;3.35;;;;;;;13.25;41.61;102558.44;5094657;28;20012;-74
2021/01/04 02:25:49;;;;;;;11.25;2.92;;;;;;;13.18;41.62;102555.19;5094587;28;20027;-73
2021/01/04 02:28:20;;;;;;;8.90;2.75;;;;;;;13.00;41.25;102559.44;5076672;28;20024;-73
2021/01/04 02:30:47;;;;;;;11.88;3.67;;;;;;;13.37;41.24;102562.75;5094507;28;20074;-75
2021/01/04 02:33:16;;;;;;;15.05;3.60;;;;;;;13.05;40.10;102558.56;5094357;28;20028;-73
2021/01/04 02:35:42;;;;;;;7.15;1.95;;;;;;;13.23;40.25;102552.44;5094406;28;20071;-74
2021/01/04 02:38:09;;;;;;;7.93;2.78;;;;;;;13.10;41.11;102557.72;5075930;28;20064;-73
2021/01/04 02:40:35;;;;;;;10.57;3.50;;;;;;;13.41;40.65;102559.13;5076156;28;20093;-73
2021/01/04 02:43:00;;;;;;;11.13;2.83;;;;;;;13.14;40.36;102556.03;5094249;28;20432;-73
2021/01/04 02:45:30;;;;;;;12.15;3.20;;;;;;;13.28;40.49;102555.13;5094215;28;20047;-74
2021/01/04 02:48:18;;;;;;;12.40;3.50;;;;;;;13.49;40.97;102552.22;5094173;28;20379;-74
2021/01/04 02:51:07;;;;;;;24.83;7.43;;;;;;;13.30;41.50;102546.63;5075686;28;20276;-73
2021/01/04 02:53:48;;;;;;;7.38;3.42;;;;;;;13.44;40.76;102549.50;5094065;28;20367;-74
2021/01/04 02:56:26;;;;;;;8.10;3.28;;;;;;;13.33;40.42;102546.84;5093973;28;20020;-73
2021/01/04 02:59:06;;;;;;;12.90;2.80;;;;;;;13.54;39.50;102550.25;5093967;28;20016;-73
2021/01/04 03:01:43;;;;;;;;;;;;;;;13.34;40.16;102553.16;5094663;28;20099;-72
2021/01/04 03:04:12;;;;;;;12.40;3.67;;;;;;;13.51;40.56;102547.25;5093904;28;19994;-74
2021/01/04 03:06:49;;;;;;;10.23;3.83;;;;;;;13.07;41.41;102548.13;5076024;28;20107;-74
2021/01/04 03:09:14;;;;;;;11.25;3.00;;;;;;;13.27;40.01;102553.50;5093776;28;20027;-73
2021/01/04 03:11:42;;;;;;;10.75;3.72;;;;;;;13.33;39.94;102560.56;5075427;28;20028;-73
2021/01/04 03:14:42;;;;;;;11.13;2.53;;;;;;;13.32;39.85;102561.69;5093578;28;20649;-73
2021/01/04 03:17:13;;;;;;;10.45;3.67;;;;;;;13.29;40.07;102551.25;5093682;28;20385;-74
2021/01/04 03:19:44;;;;;;;5.85;2.42;;;;;;;13.22;39.61;102553.50;5093698;28;20482;-73
2021/01/04 03:22:12;;;;;;;7.35;2.70;;;;;;;13.39;39.19;102558.63;5093599;28;20497;-73
2021/01/04 03:24:38;;;;;;;8.57;2.72;;;;;;;13.23;40.26;102557.94;5093478;28;20023;-73
2021/01/04 03:27:11;;;;;;;11.13;2.80;;;;;;;13.43;39.77;102561.59;5075182;28;20036;-73
2021/01/04 03:29:37;;;;;;;11.40;2.58;;;;;;;13.39;39.54;102566.03;5092699;28;20020;-73
2021/01/04 03:32:03;;;;;;;11.93;3.38;;;;;;;13.47;39.14;102562.66;5093305;28;20445;-74
2021/01/04 03:34:29;;;;;;;10.27;3.78;;;;;;;13.44;39.27;102564.03;5093422;28;20024;-73
2021/01/04 03:36:55;;;;;;;16.70;2.78;;;;;;;13.37;39.82;102560.81;5093249;28;20497;-73
2021/01/04 03:39:20;;;;;;;6.47;2.60;;;;;;;13.57;38.95;102560.63;5093011;28;20043;-73
2021/01/04 03:41:47;;;;;;;8.95;2.83;;;;;;;13.46;39.90;102559.09;5092990;28;20024;-73
2021/01/04 03:44:13;;;;;;;9.55;3.30;;;;;;;13.11;39.78;102564.84;5091955;28;20449;-74
2021/01/04 03:46:45;;;;;;;7.95;3.17;;;;;;;13.27;40.12;102561.72;5093048;28;20027;-73
2021/01/04 03:49:11;;;;;;;12.63;3.35;;;;;;;13.64;39.59;102568.53;5093078;28;20077;-74
2021/01/04 03:51:36;;;;;;;9.63;2.80;;;;;;;13.82;38.80;102561.50;5092969;28;20028;-73
2021/01/04 03:54:02;;;;;;;7.78;1.88;;;;;;;13.65;38.83;102574.84;5093182;28;20036;-73
2021/01/04 03:56:28;;;;;;;10.32;3.53;;;;;;;13.70;39.11;102559.16;5092885;28;20024;-73
2021/01/04 03:58:53;;;;;;;14.30;2.67;;;;;;;13.36;39.65;102570.16;5092997;28;20406;-73
2021/01/04 04:01:19;;;;;;;11.15;2.83;;;;;;;13.64;38.66;102554.00;5092930;28;20054;-74
2021/01/04 04:03:44;;;;;;;10.38;3.30;;;;;;;13.73;38.90;102555.00;5092821;28;20375;-74
2021/01/04 04:06:11;;;;;;;10.93;2.70;;;;;;;13.10;40.24;102558.53;5092868;28;20101;-74
2021/01/04 04:08:40;;;;;;;12.10;2.92;;;;;;;13.21;40.41;102554.63;5092819;28;20103;-74
2021/01/04 04:11:05;;;;;;;13.02;3.70;;;;;;;13.51;40.45;102550.81;5092931;28;20039;-73
2021/01/04 04:13:31;;;;;;;18.58;4.72;;;;;;;13.51;41.05;102563.72;5092706;28;20421;-73
2021/01/04 04:15:57;;;;;;;9.48;2.50;;;;;;;13.64;40.44;102554.81;5092684;28;20024;-73
2021/01/04 04:18:23;;;;;;;21.23;3.28;;;;;;;13.21;40.45;102560.13;5092717;28;20032;-74
2021/01/04 04:20:49;;;;;;;13.30;3.45;;;;;;;13.40;40.36;102551.19;5092606;28;20060;-74
2021/01/04 04:23:15;;;;;;;15.65;3.90;;;;;;;13.26;40.23;102562.84;5092635;28;20028;-74
2021/01/04 04:25:40;;;;;;;7.63;2.97;;;;;;;13.10;40.47;102558.53;5092511;28;20081;-73
2021/01/04 04:28:06;;;;;;;6.75;2.53;;;;;;;13.02;41.22;102556.41;5092855;28;20066;-74
2021/01/04 04:30:32;;;;;;;7.57;2.47;;;;;;;13.03;41.04;102552.56;5092428;28;20031;-73
2021/01/04 04:32:59;;;;;;;14.00;4.13;;;;;;;13.35;40.11;102564.97;5092502;28;20403;-73
2021/01/04 04:35:27;;;;;;;15.00;4.07;;;;;;;13.49;40.18;102560.44;5092732;28;20051;-73
2021/01/04 04:37:53;;;;;;;7.50;3.33;;;;;;;13.23;40.52;102563.41;5092232;28;20031;-73
2021/01/04 04:40:23;;;;;;;10.68;3.63;;;;;;;13.30;41.00;102558.41;5095043;28;20020;-73
2021/01/04 04:42:54;;;;;;;11.90;4.15;;;;;;;13.23;41.09;102562.59;5096841;28;20032;-74
2021/01/04 04:45:20;;;;;;;11.95;2.60;;;;;;;13.41;40.69;102550.09;5096591;28;20489;-73
2021/01/04 04:48:10;;;;;;;9.02;2.97;;;;;;;13.03;41.10;102555.28;5096503;28;20034;-74
2021/01/04 04:51:13;;;;;;;15.38;2.88;;;;;;;13.18;41.49;102557.94;5096356;28;20105;-73
2021/01/04 04:53:44;;;;;;;10.63;2.85;;;;;;;12.88;42.48;102558.16;5096470;28;20071;-75
2021/01/04 04:56:31;;;;;;;9.57;2.80;;;;;;;13.02;41.85;102561.88;5096492;28;20058;-74
2021/01/04 04:59:21;;;;;;;12.60;2.85;;;;;;;12.93;41.64;102558.94;5096344;28;20020;-74
2021/01/04 05:02:02;;;;;;;12.80;2.90;;;;;;;13.01;41.40;102561.06;5096339;28;20085;-73
2021/01/04 05:04:58;;;;;;;8.25;2.60;;;;;;;13.24;41.56;102556.81;5096249;28;20056;-73
2021/01/04 05:07:27;;;;;;;19.30;4.47;;;;;;;13.56;41.57;102564.50;5096130;28;20032;-73
2021/01/04 05:09:55;;;;;;;16.05;3.22;;;;;;;13.35;41.52;102560.28;5077954;28;20038;-73
2021/01/04 05:12:35;;;;;;;12.80;2.72;;;;;;;13.39;41.68;102571.53;5095970;28;20050;-73
2021/01/04 05:15:04;;;;;;;9.00;2.40;;;;;;;13.39;41.14;102579.75;5077897;28;20028;-74
2021/01/04 05:17:45;;;;;;;7.68;2.53;;;;;;;13.57;40.29;102581.78;5095953;28;20486;-73
2021/01/04 05:20:38;;;;;;;8.65;2.85;;;;;;;13.47;38.77;102584.63;5095968;28;20060;-73
2021/01/04 05:23:35;;;;;;;11.52;3.75;;;;;;;13.77;38.29;102576.13;5095953;28;20114;-74
2021/01/04 05:26:19;;;;;;;13.05;3.20;;;;;;;13.51;39.91;102585.69;5095844;28;20028;-73
2021/01/04 05:29:06;;;;;;;11.85;2.75;;;;;;;13.41;40.30;102591.28;5077561;28;20024;-73
2021/01/04 05:32:08;;;;;;;7.18;1.83;;;;;;;13.66;40.64;102585.53;5095569;28;20115;-73
2021/01/04 05:34:42;;;;;;;11.90;3.00;;;;;;;13.82;40.18;102587.03;5077376;28;20036;-73
2021/01/04 05:37:23;;;;;;;12.87;2.60;;;;;;;13.75;38.88;102592.06;5095552;28;20034;-73
2021/01/04 05:40:08;;;;;;;10.30;3.33;;;;;;;13.52;39.01;102590.06;5095352;28;20059;-74
2021/01/04 05:42:52;;;;;;;15.18;3.22;;;;;;;13.93;38.69;102592.44;5077440;28;20040;-73
2021/01/04 05:45:38;;;;;;;10.88;2.40;;;;;;;13.85;38.83;102586.47;5095469;28;20020;-74
2021/01/04 05:48:16;;;;;;;8.73;2.67;;;;;;;13.97;38.94;102593.50;5095309;28;20036;-73
2021/01/04 05:50:57;;;;;;;10.15;2.53;;;;;;;13.84;39.20;102584.03;5094853;28;20027;-73
2021/01/04 05:53:23;;;;;;;10.95;2.75;;;;;;;13.70;40.48;102586.63;5076946;28;20028;-73
2021/01/04 05:55:58;;;;;;;11.43;3.67;;;;;;;13.28;42.20;102582.56;5095194;28;20474;-73
2021/01/04 05:58:28;;;;;;;6.93;1.92;;;;;;;13.09;42.46;102592.56;5095130;28;20035;-73
2021/01/04 06:00:54;;;;;;;;;;;;;;;13.29;42.17;102595.19;5095854;28;20032;-75
2021/01/04 06:03:22;;;;;;;8.98;3.03;;;;;;;13.48;42.28;102591.75;5095093;28;19919;-73
2021/01/04 06:05:50;;;;;;;12.63;2.80;;;;;;;13.06;42.68;102599.44;5095041;28;20119;-74
2021/01/04 06:08:20;;;;;;;9.07;2.42;;;;;;;13.07;41.59;102605.75;5095264;28;20024;-74
2021/01/04 06:10:46;;;;;;;16.35;3.55;;;;;;;13.34;40.47;102602.56;5094879;28;20031;-73
2021/01/04 06:13:19;;;;;;;21.45;3.08;;;;;;;13.18;40.98;102601.84;5094993;28;20028;-73
2021/01/04 06:15:46;;;;;;;11.85;2.60;;;;;;;13.29;41.16;102608.91;5094934;28;20108;-73
2021/01/04 06:18:27;;;;;;;8.30;2.30;;;;;;;13.49;41.25;102605.19;5076772;28;20032;-72
2021/01/04 06:20:53;;;;;;;9.25;2.53;;;;;;;13.62;39.38;102608.41;5094795;28;20076;-73
2021/01/04 06:23:29;;;;;;;5.35;1.45;;;;;;;13.41;39.54;102600.31;5094620;28;20047;-72
2021/01/04 06:26:05;;;;;;;14.32;2.83;;;;;;;13.72;39.84;102609.13;5094763;28;20062;-72
2021/01/04 06:28:45;;;;;;;13.70;2.90;;;;;;;13.89;40.01;102609.50;5094762;28;20024;-73
2021/01/04 06:31:26;;;;;;;13.05;2.17;;;;;;;13.51;41.36;102607.66;5094493;28;20032;-71
2021/01/04 06:34:01;;;;;;;6.90;1.70;;;;;;;13.63;40.83;102613.59;5094687;28;20047;-74
2021/01/04 06:36:30;;;;;;;8.85;2.90;;;;;;;13.51;41.60;102608.47;5094376;28;20024;-74
2021/01/04 06:39:08;;;;;;;5.15;1.58;;;;;;;13.55;40.46;102615.03;5075971;28;20040;-75
2021/01/04 06:41:34;;;;;;;9.45;1.98;;;;;;;13.65;39.83;102613.31;5094365;28;20406;-75
2021/01/04 06:44:11;;;;;;;14.02;3.03;;;;;;;13.70;40.47;102605.84;5076100;28;20039;-74
2021/01/04 06:47:01;;;;;;;15.68;3.15;;;;;;;13.74;40.62;102614.31;5094292;28;20497;-75
2021/01/04 06:49:29;;;;;;;;;;;;;;;13.71;41.14;102617.66;5094666;28;20047;-75
2021/01/04 06:52:15;;;;;;;10.02;2.60;;;;;;;13.46;41.91;102608.53;5093993;28;19916;-75
2021/01/04 06:55:13;;;;;;;8.05;2.22;;;;;;;13.48;42.30;102619.22;5075950;28;20031;-75
2021/01/04 06:58:04;;;;;;;11.00;3.15;;;;;;;13.13;42.33;102625.75;5094028;28;20471;-74
2021/01/04 07:00:48;;;;;;;13.45;3.08;;;;;;;13.44;42.25;102629.13;5093907;28;20062;-76
2021/01/04 07:03:23;;;;;;;8.30;2.75;;;;;;;13.25;42.72;102620.78;5092968;28;20069;-74
2021/01/04 07:06:27;;;;;;;9.93;2.50;;;;;;;13.66;41.54;102625.94;5093944;28;20024;-75
2021/01/04 07:09:25;;;;;;;8.30;2.20;;;;;;;13.08;41.61;102632.13;5093260;28;20127;-75
2021/01/04 07:11:59;;;;;;;10.25;2.63;;;;;;;13.45;41.29;102625.28;5021135;28;20053;-75
2021/01/04 07:14:54;;;;;;;9.98;3.25;;;;;;;12.82;42.11;102625.09;5075577;28;20085;-74
2021/01/04 07:17:51;;;;;;;6.32;2.03;;;;;;;13.33;42.00;102631.16;5093658;28;20020;-75
2021/01/04 07:20:40;;;;;;;10.43;3.72;;;;;;;13.26;42.12;102622.41;5093617;28;20035;-75
2021/01/04 07:23:44;;;;;;;10.25;2.25;;;;;;;13.37;41.84;102639.63;5093512;28;20028;-75
2021/01/04 07:26:48;;;;;;;10.60;4.07;;;;;;;13.29;41.96;102639.13;5093516;28;20096;-75
2021/01/04 07:29:38;;;;;;;9.43;2.10;;;;;;;13.02;42.58;102622.25;5074592;28;20482;-75
2021/01/04 07:32:30;;;;;;;10.70;2.17;;;;;;;13.23;42.78;102629.28;5093322;28;20093;-74
2021/01/04 07:35:08;;;;;;;13.67;3.43;;;;;;;13.22;43.03;102638.63;5093604;28;20398;-75
2021/01/04 07:37:57;;;;;;;7.97;2.10;;;;;;;13.15;42.24;102637.25;5093227;28;20378;-75
2021/01/04 07:40:33;;;;;;;12.95;3.25;;;;;;;13.45;41.75;102639.00;5061873;28;20426;-75
2021/01/04 07:43:17;;;;;;;14.03;3.00;;;;;;;13.33;42.05;102642.94;5093191;28;20036;-74
2021/01/04 07:45:55;;;;;;;12.18;2.80;;;;;;;13.13;43.57;102640.28;5093438;28;20040;-75
2021/01/04 07:48:56;;;;;;;15.25;3.83;;;;;;;13.36;42.44;102646.22;5093135;28;20034;-74
2021/01/04 07:51:30;;;;;;;10.75;2.65;;;;;;;13.36;41.96;102660.75;5074788;28;20467;-75
2021/01/04 07:54:48;;;;;;;8.48;2.35;;;;;;;13.23;42.40;102651.25;5093015;28;20062;-72
2021/01/04 07:57:41;;;;;;;6.35;2.40;;;;;;;13.04;42.48;102647.50;5048007;28;20064;-72
2021/01/04 08:00:43;;;;;;;5.93;2.00;;;;;;;13.16;42.34;102645.22;5093237;28;20035;-72
2021/01/04 08:03:39;;;;;;;9.82;2.45;;;;;;;13.24;41.98;102647.41;5093112;28;20024;-72
2021/01/04 08:06:29;;;;;;;13.73;2.85;;;;;;;13.24;42.67;102657.56;5092943;28;20534;-72
2021/01/04 08:09:19;;;;;;;13.10;3.17;;;;;;;13.06;43.16;102651.59;5092855;28;20024;-72
2021/01/04 08:11:54;;;;;;;19.75;4.18;;;;;;;13.43;42.91;102657.69;5074663;28;20104;-71
2021/01/04 08:14:57;;;;;;;12.50;4.75;;;;;;;13.41;42.54;102665.41;5092591;28;20043;-71
2021/01/04 08:17:46;;;;;;;15.48;5.15;;;;;;;13.22;41.72;102660.56;5092688;28;20024;-71
2021/01/04 08:20:12;;;;;;;10.05;2.80;;;;;;;13.46;40.98;102665.38;5092725;28;20081;-71
2021/01/04 08:22:49;;;;;;;7.00;2.50;;;;;;;13.34;41.97;102665.72;5074435;28;20089;-70
2021/01/04 08:25:25;;;;;;;13.80;2.88;;;;;;;13.26;42.24;102672.63;5092665;28;20431;-71
2021/01/04 08:28:15;;;;;;;11.27;3.58;;;;;;;13.09;42.93;102663.13;5074402;28;20064;-71
2021/01/04 08:30:51;;;;;;;13.50;2.90;;;;;;;13.28;42.53;102672.34;5092710;28;20035;-70
2021/01/04 08:33:41;;;;;;;8.68;3.25;;;;;;;13.16;42.02;102667.19;5073962;28;20108;-71
2021/01/04 08:36:17;;;;;;;7.15;2.53;;;;;;;13.18;41.66;102680.63;5092482;28;20115;-73
2021/01/04 08:38:43;;;;;;;8.52;1.80;;;;;;;13.04;42.33;102673.00;5100228;28;20072;-73
2021/01/04 08:41:26;;;;;;;7.50;2.30;;;;;;;13.30;42.59;102676.47;5109089;28;20067;-76
2021/01/04 08:43:52;;;;;;;8.88;2.17;;;;;;;13.00;42.95;102690.34;5101882;28;20012;-75
2021/01/04 08:46:24;;;;;;;12.55;2.85;;;;;;;13.19;42.57;102696.00;5082527;28;20020;-73
2021/01/04 08:48:51;;;;;;;10.05;3.15;;;;;;;13.04;43.05;102696.88;5112693;28;20117;-76
2021/01/04 08:51:34;;;;;;;10.13;3.17;;;;;;;13.03;43.19;102698.81;5093088;28;20032;-74
2021/01/04 08:54:19;;;;;;;13.83;3.83;;;;;;;13.42;43.16;102691.75;5094436;28;20378;-74
2021/01/04 08:56:47;;;;;;;9.43;2.60;;;;;;;13.15;42.86;102698.50;5112704;28;20027;-74
2021/01/04 08:59:20;;;;;;;10.50;3.17;;;;;;;13.07;43.61;102701.81;5112312;28;20089;-74
2021/01/04 09:01:55;;;;;;;11.02;2.40;;;;;;;13.04;43.95;102696.88;5112258;28;20035;-74
2021/01/04 09:04:27;;;;;;;10.82;2.88;;;;;;;13.00;43.68;102702.13;5101675;28;20032;-74
2021/01/04 09:07:08;;;;;;;11.88;2.67;;;;;;;13.20;42.76;102698.47;5090121;28;20036;-74
2021/01/04 09:09:49;;;;;;;25.92;4.43;;;;;;;13.18;43.40;102695.16;5074090;28;20576;-75
2021/01/04 09:12:15;;;;;;;7.95;2.53;;;;;;;13.26;42.80;102691.03;5092313;28;20028;-75
2021/01/04 09:14:46;;;;;;;10.80;2.47;;;;;;;13.38;42.93;102697.00;5089204;28;20103;-77
2021/01/04 09:17:24;;;;;;;16.38;3.20;;;;;;;13.52;43.63;102695.25;5075493;28;20021;-76
2021/01/04 09:20:04;;;;;;;9.25;2.50;;;;;;;13.51;43.21;102703.78;5075925;28;20040;-76
2021/01/04 09:22:29;;;;;;;9.88;2.50;;;;;;;13.35;43.15;102694.81;5073463;28;20372;-79
2021/01/04 09:24:55;;;;;;;9.07;2.17;;;;;;;13.33;43.10;102695.09;5090990;28;20043;-76
2021/01/04 09:27:33;;;;;;;12.40;2.53;;;;;;;13.26;42.98;102707.50;5076320;28;20024;-76
2021/01/04 09:30:06;;;;;;;11.13;2.35;;;;;;;13.36;43.08;102703.88;5095805;28;20067;-74
2021/01/04 09:32:39;;;;;;;10.63;2.70;;;;;;;13.45;43.13;102696.66;5094742;28;20057;-73
2021/01/04 09:35:15;;;;;;;8.00;3.03;;;;;;;13.13;43.14;102717.16;5095308;28;20070;-73
2021/01/04 09:37:40;;;;;;;6.53;1.88;;;;;;;13.18;42.91;102714.38;5079745;28;20028;-73
2021/01/04 09:40:10;;;;;;;9.70;1.83;;;;;;;13.38;42.31;102712.66;5094721;28;20028;-73
2021/01/04 09:42:36;;;;;;;10.30;2.83;;;;;;;13.40;42.58;102713.19;5077405;28;20636;-72
2021/01/04 09:45:28;;;;;;;8.70;2.30;;;;;;;13.16;42.83;102721.28;5095399;28;20116;-72
2021/01/04 09:47:58;;;;;;;7.07;2.27;;;;;;;13.07;42.15;102729.25;5090382;28;20405;-72
2021/01/04 09:50:51;;;;;;;6.57;1.90;;;;;;;13.50;41.84;102724.09;5081063;28;20038;-73
2021/01/04 09:53:33;;;;;;;7.93;2.25;;;;;;;13.15;41.90;102736.91;5079060;28;20020;-73
2021/01/04 09:56:03;;;;;;;11.07;2.67;;;;;;;13.06;42.40;102727.59;5079263;28;20085;-73
2021/01/04 09:58:29;;;;;;;15.00;3.42;;;;;;;13.07;43.11;102734.72;5064919;28;20382;-75
2021/01/04 10:01:12;;;;;;;12.27;2.85;;;;;;;13.11;43.69;102730.34;5087147;28;20032;-73
2021/01/04 10:03:39;;;;;;;14.57;3.90;;;;;;;13.26;43.50;102719.31;5094830;28;20056;-74
2021/01/04 10:06:08;;;;;;;8.45;2.35;;;;;;;13.12;43.81;102731.97;5095007;28;20020;-74
2021/01/04 10:08:36;;;;;;;8.35;3.10;;;;;;;13.41;43.50;102728.56;5092582;28;20030;-73
2021/01/04 10:11:05;;;;;;;10.93;3.28;;;;;;;13.50;43.13;102726.84;5094451;28;20031;-74
2021/01/04 10:13:34;;;;;;;10.87;3.43;;;;;;;13.35;43.08;102735.19;5094652;28;20034;-74
2021/01/04 10:16:04;;;;;;;15.70;4.15;;;;;;;13.40;44.24;102740.66;5094812;28;20095;-74
2021/01/04 10:18:41;;;;;;;9.43;3.03;;;;;;;13.43;43.96;102740.06;5094165;28;20031;-74
2021/01/04 10:21:15;;;;;;;14.05;2.83;;;;;;;13.30;44.13;102738.81;5094714;28;20036;-74
2021/01/04 10:23:48;;;;;;;10.07;1.95;;;;;;;13.34;42.92;102739.84;5067870;28;20382;-74
2021/01/04 10:26:13;;;;;;;10.20;2.88;;;;;;;13.37;43.30;102746.69;5075170;28;20020;-74
2021/01/04 10:28:39;;;;;;;7.28;2.38;;;;;;;13.27;43.05;102748.41;5078533;28;20027;-75
2021/01/04 10:31:14;;;;;;;8.40;3.20;;;;;;;13.56;42.17;102739.47;5078569;28;20024;-74
2021/01/04 10:33:41;;;;;;;10.90;3.53;;;;;;;13.42;41.74;102743.94;5079720;28;20024;-74
2021/01/04 10:36:12;;;;;;;10.70;2.67;;;;;;;13.18;43.04;102741.00;5091150;28;20028;-74
2021/01/04 10:38:41;;;;;;;13.50;3.60;;;;;;;13.39;43.50;102741.78;5066225;28;20407;-74
2021/01/04 10:41:14;;;;;;;10.87;3.27;;;;;;;13.61;43.02;102742.19;5091122;28;20032;-74
2021/01/04 10:43:39;;;;;;;11.07;3.38;;;;;;;13.13;43.71;102750.09;5093460;28;20056;-74
2021/01/04 10:46:27;;;;;;;7.38;2.50;;;;;;;13.13;44.09;102763.81;5093405;28;20055;-74
2021/01/04 10:49:00;;;;;;;11.75;3.03;;;;;;;13.15;43.18;102747.06;5094420;28;20378;-74
2021/01/04 10:51:26;;;;;;;7.32;1.90;;;;;;;13.08;43.08;102749.31;5094265;28;20489;-74
2021/01/04 10:53:52;;;;;;;10.02;2.63;;;;;;;13.16;43.39;102749.53;5094143;28;20059;-74
2021/01/04 10:56:18;;;;;;;11.35;2.67;;;;;;;13.44;43.04;102742.53;5092996;28;20107;-74
2021/01/04 10:58:46;;;;;;;13.07;2.88;;;;;;;13.06;44.06;102753.13;5081522;28;20028;-74
2021/01/04 11:01:23;;;;;;;9.25;2.38;;;;;;;13.22;44.49;102762.16;5081733;28;20712;-74
2021/01/04 11:03:55;;;;;;;14.68;2.70;;;;;;;13.65;43.13;102756.97;5087025;28;20098;-74
2021/01/04 11:06:24;;;;;;;8.48;2.72;;;;;;;13.36;42.42;102754.13;5084668;28;20077;-74
2021/01/04 11:08:49;;;;;;;18.92;3.30;;;;;;;13.68;41.59;102745.44;5081735;28;20016;-75
2021/01/04 11:11:34;;;;;;;9.80;2.88;;;;;;;13.60;41.37;102743.25;5080928;28;20032;-74
2021/01/04 11:14:12;;;;;;;9.63;4.03;;;;;;;13.82;40.98;102740.91;5093890;28;20382;-74
2021/01/04 11:16:49;;;;;;;12.63;3.38;;;;;;;13.67;41.87;102742.94;5093413;28;20038;-74
2021/01/04 11:19:29;;;;;;;15.63;3.88;;;;;;;13.44;42.06;102747.22;5092701;28;20024;-74
2021/01/04 11:21:55;;;;;;;8.20;3.30;;;;;;;13.52;42.04;102735.63;5093479;28;20050;-74
2021/01/04 11:24:20;;;;;;;10.63;3.08;;;;;;;13.51;42.15;102725.75;5093369;28;20048;-74
2021/01/04 11:26:46;;;;;;;10.48;2.92;;;;;;;13.48;42.42;102737.31;5093388;28;20024;-74
2021/01/04 11:29:13;;;;;;;11.18;3.35;;;;;;;13.20;42.29;102742.41;5092423;28;20031;-74
2021/01/04 11:31:39;;;;;;;10.23;3.50;;;;;;;13.47;42.10;102736.50;5092280;28;20429;-74
2021/01/04 11:34:05;;;;;;;13.82;4.20;;;;;;;13.50;42.82;102735.09;5093412;28;20126;-74
2021/01/04 11:36:32;;;;;;;5.53;2.47;;;;;;;13.65;41.41;102726.75;5093465;28;20463;-74
2021/01/04 11:38:58;;;;;;;10.85;2.90;;;;;;;13.68;40.83;102720.72;5091524;28;20055;-75
2021/01/04 11:41:23;;;;;;;13.90;4.30;;;;;;;13.77;40.10;102729.16;5073934;28;20432;-74
2021/01/04 11:43:50;;;;;;;8.65;2.35;;;;;;;14.35;39.67;102724.50;5091442;28;20024;-74
2021/01/04 11:46:18;;;;;;;7.65;2.70;;;;;;;13.83;41.25;102731.59;5074495;28;20087;-74
2021/01/04 11:48:43;;;;;;;13.07;3.67;;;;;;;13.70;41.79;102721.22;5091745;28;20375;-78
2021/01/04 11:51:09;;;;;;;12.60;3.53;;;;;;;13.72;42.12;102726.44;5071903;28;20032;-74
2021/01/04 11:53:35;;;;;;;11.85;3.38;;;;;;;13.93;41.47;102727.09;5090680;28;20382;-73
2021/01/04 11:56:01;;;;;;;12.43;3.45;;;;;;;13.89;41.53;102724.09;5092483;28;20031;-74
2021/01/04 11:58:27;;;;;;;11.13;2.55;;;;;;;13.65;41.79;102726.75;5092716;28;20024;-74
2021/01/04 12:00:53;;;;;;;11.98;3.80;;;;;;;13.73;41.25;102717.91;5091927;28;20032;-73
2021/01/04 12:03:19;;;;;;;9.20;3.10;;;;;;;13.96;40.70;102712.78;5074818;28;20020;-74
2021/01/04 12:05:45;;;;;;;15.15;4.00;;;;;;;14.20;40.38;102715.56;5092473;28;20432;-75